createdAt,value
2022-10-13T00:02:09.472Z,49.60
2022-10-13T00:05:12.836Z,51.80
2022-10-13T00:08:19.150Z,50.60
2022-10-13T00:11:24.885Z,50.00
2022-10-13T00:14:28.256Z,49.00
2022-10-13T00:17:33.333Z,51.33
2022-10-13T00:20:37.338Z,47.00
2022-10-13T00:23:41.496Z,49.00
2022-10-13T00:26:44.999Z,47.00
2022-10-13T00:29:55.471Z,46.80
2022-10-13T00:33:00.116Z,50.00
2022-10-13T00:36:03.406Z,45.00
2022-10-13T00:39:06.689Z,47.00
2022-10-13T00:42:13.236Z,47.00
2022-10-13T00:45:22.979Z,50.00
2022-10-13T00:48:31.446Z,48.00
2022-10-13T00:51:38.351Z,49.00
2022-10-13T00:54:41.920Z,49.00
2022-10-13T00:57:48.217Z,47.80
2022-10-13T01:00:54.004Z,49.00
2022-10-13T01:03:58.908Z,49.00
2022-10-13T01:07:03.021Z,49.00
2022-10-13T01:10:07.590Z,47.40
2022-10-13T01:13:18.316Z,48.50
2022-10-13T01:16:32.081Z,48.50
2022-10-13T01:20:11.153Z,47.60
2022-10-13T01:23:57.368Z,49.20
2022-10-13T01:27:25.843Z,48.20
2022-10-13T01:30:37.757Z,50.00
2022-10-13T01:33:46.813Z,49.00
2022-10-13T01:36:57.888Z,49.00
2022-10-13T01:40:14.782Z,50.80
2022-10-13T01:43:21.477Z,48.00
2022-10-13T01:46:31.018Z,49.50
2022-10-13T01:49:37.138Z,50.40
2022-10-13T01:52:40.825Z,46.80
2022-10-13T01:55:54.600Z,49.00
2022-10-13T01:59:02.776Z,52.00
2022-10-13T02:02:14.251Z,50.60
2022-10-13T02:05:27.629Z,50.00
2022-10-13T02:08:35.856Z,49.40
2022-10-13T02:11:45.976Z,52.40
2022-10-13T02:14:52.058Z,49.00
2022-10-13T02:17:57.262Z,49.50
2022-10-13T02:21:01.115Z,50.50
2022-10-13T02:24:04.954Z,50.60
2022-10-13T02:27:09.449Z,49.25
2022-10-13T02:30:22.218Z,51.40
2022-10-13T02:33:26.978Z,54.25
2022-10-13T02:36:30.378Z,49.50
2022-10-13T02:39:34.042Z,49.40
2022-10-13T02:42:37.339Z,49.00
2022-10-13T02:45:40.601Z,50.60
2022-10-13T02:48:45.202Z,51.00
2022-10-13T02:51:48.714Z,48.00
2022-10-13T02:54:51.994Z,48.00
2022-10-13T02:57:55.319Z,51.60
2022-10-13T03:01:07.876Z,49.00
2022-10-13T03:04:13.105Z,52.25
2022-10-13T03:07:17.014Z,52.60
2022-10-13T03:10:20.766Z,47.00
2022-10-13T03:13:27.567Z,47.00
2022-10-13T03:16:37.293Z,49.20
2022-10-13T03:19:47.656Z,47.40
2022-10-13T03:22:54.808Z,47.60
2022-10-13T03:25:58.028Z,47.00
2022-10-13T03:29:01.299Z,48.80
2022-10-13T03:32:04.859Z,47.60
2022-10-13T03:35:10.211Z,49.00
2022-10-13T03:38:13.419Z,49.60
2022-10-13T03:41:18.791Z,46.00
2022-10-13T03:44:26.569Z,50.00
2022-10-13T03:47:29.853Z,48.00
2022-10-13T03:50:34.499Z,47.00
2022-10-13T03:53:38.756Z,49.25
2022-10-13T03:56:45.410Z,45.80
2022-10-13T03:59:49.257Z,45.20
2022-10-13T04:02:52.488Z,45.60
2022-10-13T04:05:57.137Z,45.00
2022-10-13T04:09:00.437Z,46.75
2022-10-13T04:12:03.670Z,49.00
2022-10-13T04:15:08.155Z,48.60
2022-10-13T04:18:12.873Z,46.80
2022-10-13T04:21:17.789Z,49.00
2022-10-13T04:24:21.509Z,48.60
2022-10-13T04:27:25.175Z,45.20
2022-10-13T04:30:28.499Z,45.50
2022-10-13T04:33:32.232Z,45.80
2022-10-13T04:36:37.050Z,46.25
2022-10-13T04:39:40.359Z,46.00
2022-10-13T04:42:44.688Z,45.20
2022-10-13T04:45:48.457Z,47.40
2022-10-13T04:48:52.452Z,47.20
2022-10-13T04:51:59.363Z,44.40
2022-10-13T04:55:02.616Z,47.00
2022-10-13T04:58:05.922Z,46.60
2022-10-13T05:01:16.407Z,50.00
2022-10-13T05:04:22.248Z,44.00
2022-10-13T05:07:26.801Z,45.00
2022-10-13T05:10:34.557Z,46.80
2022-10-13T05:13:39.509Z,49.20
2022-10-13T05:16:42.743Z,47.00
2022-10-13T05:19:45.988Z,45.00
2022-10-13T05:22:50.576Z,43.00
2022-10-13T05:25:54.138Z,44.50
2022-10-13T05:28:58.733Z,45.00
2022-10-13T05:32:06.486Z,40.60
2022-10-13T05:35:10.781Z,44.00
2022-10-13T05:38:20.437Z,44.00
2022-10-13T05:41:29.894Z,41.60
2022-10-13T05:44:33.191Z,45.00
2022-10-13T05:47:36.388Z,45.00
2022-10-13T05:50:39.677Z,41.40
2022-10-13T05:53:51.916Z,43.00
2022-10-13T05:57:00.569Z,42.40
2022-10-13T06:00:10.554Z,40.80
2022-10-13T06:03:20.592Z,42.80
2022-10-13T06:06:29.042Z,45.00
2022-10-13T06:09:38.175Z,40.20
2022-10-13T06:12:41.720Z,45.60
2022-10-13T06:15:45.563Z,40.75
2022-10-13T06:18:50.343Z,45.00
2022-10-13T06:21:53.655Z,45.80
2022-10-13T06:24:58.620Z,42.00
2022-10-13T06:28:01.894Z,46.00
2022-10-13T06:31:06.709Z,49.00
2022-10-13T06:34:10.036Z,44.40
2022-10-13T06:37:13.301Z,47.00
2022-10-13T06:40:18.369Z,44.25
2022-10-13T06:43:21.849Z,44.40
2022-10-13T06:46:27.117Z,43.00
2022-10-13T06:49:30.433Z,45.80
2022-10-13T06:52:33.933Z,45.00
2022-10-13T06:55:38.534Z,44.80
2022-10-13T06:58:41.931Z,50.40
2022-10-13T07:01:45.268Z,45.00
2022-10-13T07:04:49.104Z,46.20
2022-10-13T07:07:53.737Z,41.50
2022-10-13T07:10:58.888Z,42.60
2022-10-13T07:17:10.473Z,42.80
2022-10-13T07:20:13.651Z,41.20
2022-10-13T07:23:16.863Z,43.00
2022-10-13T07:26:21.773Z,47.25
2022-10-13T07:29:25.017Z,45.00
2022-10-13T07:32:28.579Z,40.00
2022-10-13T07:35:31.792Z,46.40
2022-10-13T07:38:36.070Z,42.00
2022-10-13T07:41:41.329Z,44.80
2022-10-13T07:44:44.772Z,44.00
2022-10-13T07:47:48.434Z,43.80
2022-10-13T07:50:51.685Z,42.00
2022-10-13T07:53:55.493Z,42.60
2022-10-13T07:57:00.266Z,44.60
2022-10-13T08:00:06.160Z,38.40
2022-10-13T08:03:15.642Z,35.00
2022-10-13T08:06:18.964Z,37.00
2022-10-13T08:09:22.683Z,37.20
2022-10-13T08:12:27.452Z,35.80
2022-10-13T08:15:30.749Z,34.00
2022-10-13T08:18:34.059Z,38.00
2022-10-13T08:21:57.655Z,34.00
2022-10-13T08:25:02.375Z,33.00
2022-10-13T08:28:08.751Z,34.00
2022-10-13T08:31:18.492Z,34.80
2022-10-13T08:34:22.795Z,31.60
2022-10-13T08:37:28.492Z,32.00
2022-10-13T08:40:33.437Z,32.60
2022-10-13T08:43:49.090Z,33.00
2022-10-13T08:47:11.596Z,34.20
2022-10-13T08:50:17.586Z,28.80
2022-10-13T08:53:28.820Z,31.40
2022-10-13T08:56:34.755Z,32.40
2022-10-13T08:59:39.839Z,28.00
2022-10-13T09:02:45.246Z,30.00
2022-10-13T09:06:00.858Z,29.00
2022-10-13T09:09:07.233Z,31.00
2022-10-13T09:12:13.727Z,29.75
2022-10-13T09:15:19.741Z,27.00
2022-10-13T09:18:30.834Z,26.60
2022-10-13T09:21:34.124Z,26.00
2022-10-13T09:24:37.386Z,26.67
2022-10-13T09:27:46.725Z,30.00
2022-10-13T09:31:02.487Z,29.00
2022-10-13T09:34:17.125Z,31.33
2022-10-13T09:37:22.602Z,31.00
2022-10-13T09:40:26.063Z,27.40
2022-10-13T09:43:32.033Z,28.00
2022-10-13T09:46:40.562Z,32.00
2022-10-13T09:49:45.145Z,31.00
2022-10-13T09:52:49.358Z,31.00
2022-10-13T09:56:09.748Z,32.40
2022-10-13T09:59:25.395Z,31.00
2022-10-13T10:02:37.211Z,32.75
2022-10-13T10:05:48.655Z,31.40
2022-10-13T10:09:05.042Z,32.75
2022-10-13T10:12:16.802Z,26.00
2022-10-13T10:15:24.472Z,30.00
2022-10-13T10:18:37.874Z,27.00
2022-10-13T10:21:47.937Z,27.60
2022-10-13T10:25:02.025Z,28.00
2022-10-13T10:28:28.281Z,27.00
2022-10-13T10:31:47.394Z,24.75
2022-10-13T10:34:58.266Z,24.60
2022-10-13T10:38:19.766Z,23.80
2022-10-13T10:41:39.833Z,22.40
2022-10-13T10:44:48.071Z,24.20
2022-10-13T10:47:56.461Z,20.00
2022-10-13T10:51:02.956Z,24.75
2022-10-13T10:54:20.955Z,22.00
2022-10-13T10:57:30.357Z,22.60
2022-10-13T11:00:39.305Z,24.25
2022-10-13T11:03:52.255Z,23.25
2022-10-13T11:06:57.520Z,25.40
2022-10-13T11:10:18.953Z,23.25
2022-10-13T11:13:22.401Z,23.00
2022-10-13T11:16:30.562Z,24.80
2022-10-13T11:19:36.204Z,22.25
2022-10-13T11:22:40.898Z,21.00
2022-10-13T11:25:45.694Z,24.75
2022-10-13T11:28:50.466Z,23.00
2022-10-13T11:31:55.925Z,22.60
2022-10-13T11:35:20.059Z,23.00
2022-10-13T11:38:35.965Z,18.00
2022-10-13T11:41:48.578Z,21.40
2022-10-13T11:44:57.263Z,20.75
2022-10-13T11:48:27.329Z,20.60
2022-10-13T11:51:37.307Z,21.60
2022-10-13T11:54:50.911Z,21.00
2022-10-13T11:58:09.347Z,20.40
2022-10-13T12:01:15.660Z,17.60
2022-10-13T12:04:22.947Z,20.00
2022-10-13T12:07:33.408Z,20.00
2022-10-13T12:10:39.031Z,19.60
2022-10-13T12:13:47.975Z,18.00
2022-10-13T12:20:01.517Z,17.80
2022-10-13T12:23:05.188Z,18.60
2022-10-13T12:26:16.771Z,16.40
2022-10-13T12:29:24.399Z,14.80
2022-10-13T12:32:29.670Z,14.00
2022-10-13T12:35:35.408Z,14.00
2022-10-13T12:38:39.873Z,15.00
2022-10-13T12:41:46.850Z,14.00
2022-10-13T12:44:50.169Z,14.00
2022-10-13T12:47:54.760Z,16.40
2022-10-13T12:51:18.419Z,13.60
2022-10-13T12:54:25.633Z,12.60
2022-10-13T12:57:36.013Z,12.00
2022-10-13T13:00:39.647Z,13.50
2022-10-13T13:03:45.295Z,12.40
2022-10-13T13:06:56.513Z,12.00
2022-10-13T13:10:16.029Z,12.60
2022-10-13T13:13:25.010Z,10.25
2022-10-13T13:16:28.255Z,11.00
2022-10-13T13:19:33.220Z,9.40
2022-10-13T13:25:44.716Z,11.40
2022-10-13T13:28:50.851Z,11.75
2022-10-13T13:31:54.061Z,13.00
2022-10-13T13:34:57.359Z,12.00
2022-10-13T13:38:01.156Z,9.00
2022-10-13T13:41:04.335Z,11.40
2022-10-13T13:44:08.916Z,13.00
2022-10-13T13:47:18.250Z,9.80
2022-10-13T13:50:26.591Z,13.00
2022-10-13T13:53:33.157Z,10.80
2022-10-13T13:56:36.586Z,13.00
2022-10-13T13:59:44.613Z,10.75
2022-10-13T14:02:49.638Z,12.00
2022-10-13T14:05:52.917Z,12.00
2022-10-13T14:08:56.192Z,12.00
2022-10-13T14:12:00.099Z,11.40
2022-10-13T14:15:05.507Z,11.60
2022-10-13T14:18:08.956Z,9.00
2022-10-13T14:21:13.014Z,13.00
2022-10-13T14:24:16.245Z,11.00
2022-10-13T14:27:19.540Z,10.00
2022-10-13T14:30:24.085Z,11.00
2022-10-13T14:33:27.562Z,9.20
2022-10-13T14:36:31.205Z,9.00
2022-10-13T14:39:34.728Z,10.00
2022-10-13T14:42:39.301Z,10.00
2022-10-13T14:45:45.103Z,11.00
2022-10-13T14:48:50.350Z,9.25
2022-10-13T14:51:53.613Z,11.60
2022-10-13T14:54:56.982Z,11.00
2022-10-13T14:58:00.611Z,13.40
2022-10-13T15:01:06.479Z,11.00
2022-10-13T15:04:09.954Z,12.33
2022-10-13T15:07:14.310Z,12.00
2022-10-13T15:10:17.657Z,13.00
2022-10-13T15:13:20.880Z,17.00
2022-10-13T15:16:29.062Z,12.00
2022-10-13T15:19:32.626Z,12.00
2022-10-13T15:22:35.922Z,12.20
2022-10-13T15:25:39.613Z,13.50
2022-10-13T15:28:47.930Z,14.00
2022-10-13T15:31:52.657Z,14.00
2022-10-13T15:34:56.430Z,12.00
2022-10-13T15:38:01.507Z,16.60
2022-10-13T15:41:06.937Z,14.60
2022-10-13T15:44:10.561Z,15.00
2022-10-13T15:47:17.301Z,14.00
2022-10-13T15:50:20.913Z,14.00
2022-10-13T15:53:24.740Z,15.75
2022-10-13T15:56:28.174Z,16.00
2022-10-13T15:59:31.571Z,17.50
2022-10-13T16:02:37.175Z,14.00
2022-10-13T16:05:41.943Z,16.40
2022-10-13T16:08:45.150Z,17.00
2022-10-13T16:11:48.414Z,19.50
2022-10-13T16:14:51.805Z,17.40
2022-10-13T16:17:56.538Z,18.40
2022-10-13T16:20:59.839Z,17.40
2022-10-13T16:24:05.024Z,16.40
2022-10-13T16:27:08.751Z,17.50
2022-10-13T16:30:13.396Z,20.80
2022-10-13T16:33:18.082Z,20.40
2022-10-13T16:36:21.559Z,23.50
2022-10-13T16:39:28.435Z,19.00
2022-10-13T16:42:33.014Z,19.00
2022-10-13T16:45:58.505Z,22.00
2022-10-13T16:49:02.617Z,19.80
2022-10-13T16:52:06.383Z,19.00
2022-10-13T16:55:10.418Z,22.00
2022-10-13T16:58:14.087Z,22.20
2022-10-13T17:01:17.504Z,18.00
2022-10-13T17:04:22.437Z,22.40
2022-10-13T17:07:25.774Z,24.75
2022-10-13T17:10:29.465Z,25.00
2022-10-13T17:13:37.687Z,27.00
2022-10-13T17:16:41.182Z,25.60
2022-10-13T17:19:45.743Z,24.75
2022-10-13T17:22:49.032Z,26.00
2022-10-13T17:25:54.522Z,25.60
2022-10-13T17:28:57.875Z,26.40
2022-10-13T17:32:01.570Z,28.00
2022-10-13T17:35:07.120Z,29.50
2022-10-13T17:38:10.497Z,27.00
2022-10-13T17:41:13.996Z,32.00
2022-10-13T17:44:23.685Z,28.80
2022-10-13T17:47:27.097Z,27.80
2022-10-13T17:50:31.764Z,30.60
2022-10-13T17:53:35.301Z,31.20
2022-10-13T17:56:38.901Z,35.00
2022-10-13T17:59:42.171Z,35.00
2022-10-13T18:02:45.396Z,38.40
2022-10-13T18:05:51.126Z,32.50
2022-10-13T18:08:54.624Z,35.33
2022-10-13T18:11:58.548Z,34.40
2022-10-13T18:15:01.808Z,37.40
2022-10-13T18:18:05.330Z,36.60
2022-10-13T18:21:11.427Z,39.00
2022-10-13T18:24:14.910Z,38.00
2022-10-13T18:27:18.596Z,37.50
2022-10-13T18:30:22.568Z,38.60
2022-10-13T18:33:26.025Z,47.00
2022-10-13T18:36:32.622Z,37.60
2022-10-13T18:39:36.341Z,40.50
2022-10-13T18:42:42.302Z,41.60
2022-10-13T18:45:47.856Z,37.00
2022-10-13T18:48:51.419Z,38.80
2022-10-13T18:51:56.042Z,40.40
2022-10-13T18:54:59.300Z,41.00
2022-10-13T18:58:02.805Z,40.80
2022-10-13T19:01:08.080Z,41.80
2022-10-13T19:04:14.765Z,43.60
2022-10-13T19:07:19.764Z,45.40
2022-10-13T19:10:23.308Z,43.25
2022-10-13T19:13:27.944Z,45.00
2022-10-13T19:16:32.812Z,45.50
2022-10-13T19:19:36.755Z,44.50
2022-10-13T19:22:41.444Z,48.33
2022-10-13T19:25:45.628Z,45.40
2022-10-13T19:28:49.628Z,47.25
2022-10-13T19:31:52.926Z,49.00
2022-10-13T19:34:56.289Z,46.80
2022-10-13T19:38:00.926Z,43.80
2022-10-13T19:41:07.778Z,49.25
2022-10-13T19:44:11.201Z,49.00
2022-10-13T19:47:14.531Z,50.80
2022-10-13T19:50:18.099Z,46.40
2022-10-13T19:53:22.985Z,46.60
2022-10-13T19:56:28.300Z,51.80
2022-10-13T19:59:32.557Z,49.00
2022-10-13T20:02:35.746Z,54.00
2022-10-13T20:05:39.487Z,49.00
2022-10-13T20:08:45.320Z,54.25
2022-10-13T20:11:49.870Z,53.00
2022-10-13T20:14:53.204Z,50.00
2022-10-13T20:17:56.417Z,49.50
2022-10-13T20:21:03.388Z,49.00
2022-10-13T20:24:08.738Z,52.00
2022-10-13T20:27:12.242Z,50.40
2022-10-13T20:30:15.813Z,51.00
2022-10-13T20:33:19.321Z,52.67
2022-10-13T20:36:22.678Z,50.00
2022-10-13T20:39:27.322Z,49.00
2022-10-13T20:42:31.035Z,52.75
2022-10-13T20:45:34.345Z,49.00
2022-10-13T20:49:05.592Z,51.00
2022-10-13T20:52:03.519Z,50.00
2022-10-13T20:55:08.697Z,49.20
2022-10-13T20:58:13.140Z,50.00
2022-10-13T21:01:17.000Z,47.60
2022-10-13T21:04:20.340Z,44.80
2022-10-13T21:07:24.303Z,47.00
2022-10-13T21:10:29.105Z,48.33
2022-10-13T21:13:32.467Z,42.60
2022-10-13T21:16:36.555Z,45.25
2022-10-13T21:19:44.828Z,45.00
2022-10-13T21:22:48.048Z,47.00
2022-10-13T21:25:53.209Z,47.00
2022-10-13T21:28:56.917Z,46.00
2022-10-13T21:32:00.431Z,45.00
2022-10-13T21:35:03.742Z,43.00
2022-10-13T21:38:07.375Z,45.50
2022-10-13T21:41:15.783Z,46.20
2022-10-13T21:44:18.985Z,47.00
2022-10-13T21:47:22.438Z,44.40
2022-10-13T21:50:26.196Z,45.00
2022-10-13T21:53:29.466Z,44.40
2022-10-13T21:56:35.191Z,46.00
2022-10-13T21:59:39.621Z,46.00
2022-10-13T22:02:43.074Z,41.00
2022-10-13T22:05:46.717Z,42.00
2022-10-13T22:08:52.101Z,41.40
2022-10-13T22:11:59.170Z,43.80
2022-10-13T22:15:02.401Z,40.00
2022-10-13T22:18:05.776Z,39.40
2022-10-13T22:21:13.141Z,43.00
2022-10-13T22:24:18.421Z,43.80
2022-10-13T22:27:23.384Z,40.00
2022-10-13T22:30:27.064Z,41.00
2022-10-13T22:33:30.406Z,40.00
2022-10-13T22:36:33.903Z,43.80
2022-10-13T22:39:37.205Z,43.00
2022-10-13T22:42:46.344Z,53.80
2022-10-13T22:45:53.506Z,46.60
2022-10-13T22:48:58.098Z,48.60
2022-10-13T22:52:01.358Z,52.40
2022-10-13T22:55:04.798Z,52.60
2022-10-13T22:58:10.523Z,53.00
2022-10-13T23:01:16.373Z,51.80
2022-10-13T23:04:19.548Z,47.00
2022-10-13T23:07:23.262Z,43.00
2022-10-13T23:10:27.228Z,48.33
2022-10-13T23:13:32.311Z,49.60
2022-10-13T23:16:36.198Z,47.00
2022-10-13T23:19:39.410Z,44.60
2022-10-13T23:22:42.740Z,45.25
2022-10-13T23:25:46.104Z,45.00
2022-10-13T23:28:51.017Z,46.00
2022-10-13T23:31:54.409Z,46.00
2022-10-13T23:34:57.909Z,45.00
2022-10-13T23:38:05.524Z,47.60
2022-10-13T23:41:13.813Z,45.00
2022-10-13T23:44:19.811Z,45.67
2022-10-13T23:47:24.227Z,43.60
2022-10-13T23:50:27.562Z,46.00
2022-10-13T23:53:35.079Z,45.00
2022-10-13T23:56:39.572Z,45.00
2022-10-13T23:59:44.248Z,46.50
